Main page
METAR-TAF:

METAR-TAF

Airports :

Pisa, Italy

Pisa International Airport

latitude: 43-41N, longitude: 010-23E, elevation: 2 m

Current weather observation

The report was made 41 minutes ago, at 22:15 UTC
Wind 3 kt from the East/Southeast
Temperature 14°C
Humidity 100%
Pressure 1012 hPa
Visibility: 7000 m

METAR: LIRP 262215Z 12003KT 7000 NSC 14/14 Q1012 BECMG 5000 BR

Time: 00:56 (22:56 UTC)

Forecast

The report was made 5 hours and 56 minutes ago, at 17:00 UTC
Forecast valid from 26 at 18 UTC to 27 at 18 UTC
Wind 5 kt from the East/Southeast
Visibility 10 km or more
no clouds below 1500 m and no cumulonimbus
Temporary
from 26 at 21 UTC to 27 at 06 UTC
Visibility: 4000 m
mist
Becoming
from 27 at 10 UTC to 27 at 12 UTC
Wind 10 kt from the West

TAF: LIRP 261700Z 2618/2718 11005KT CAVOK TEMPO 2621/2706 4000 BR NSC BECMG 2710/2712 26010KT

Weather observations and forecasts of more than 4000 airports (METAR and TAF reports).

The available stations are represented by yellow and red dots on the map.

Hover mouse over dot to see the name of the station.

Then click to see weather observations and forecasts.

To change the map : click on the green buttons with a black cross to zoom in, on the green button with a dash to zoom out, or on the green arrows for adjacent maps.


METAR-TAF: